KMKT/MKT METAR and TAF weather

Enter ICAO airport designator
Station Type Date Time Source
KMKT METAR 2021/09/24 04:56 UTC NOAA

KMKT 240456Z AUTO 15009KT 10SM CLR 13/06 A2991 RMK AO2 SLP128 T01280056


Station Type Date Time Source
KMKT Decoded METAR 2021/09/24 04:56 UTC NOAA

Mankato, Mankato Regional Airport, MN, United States (KMKT) 44-13N 093-55W
Sep 24, 2021 - 12:56 AM EDT / 2021.09.24 0456 UTC
Wind: from the SSE (150 degrees) at 10 MPH (9 KT):0
Visibility: 10 mile(s):0
Sky conditions: clear
Temperature: 55.0 F (12.8 C)
Dew Point: 42.1 F (5.6 C)
Relative Humidity: 61%
Pressure (altimeter): 29.91 in. Hg (1012 hPa)
ob: KMKT 240456Z AUTO 15009KT 10SM CLR 13/06 A2991 RMK AO2 SLP128 T01280056
cycle: 5

Station Type Date Time Source
KMKT TAF 2021/09/24 06:21 UTC NOAA

TAF KMKT 240520Z 2406/2506 16005KT P6SM SKC
FM241300 31007KT P6SM BKN150
FM241600 33014G24KT P6SM -SHRA OVC060
FM241900 33014G22KT P6SM BKN120
FM242300 30007KT P6SM SKC

Example: see airport list